Terminal Aerodrome Forecast
Issued by NWS

Home | Current Version | Previous Version | Text Only | Print | Product List | Glossary Off
Versions: 1 2 3 4 5 6 7 8 9 10 11 12 13 14 15 16 17 18 19 20 21 22 23 24 25 26 27 28 29

000
FTUS43 KBIS 231444 AAB
TAFDIK
TAF AMD
KDIK 231444Z 2315/2412 09014G22KT 3SM BR VCSH OVC009
     FM231600 10013G22KT 6SM -SHRA BR OVC008
     FM232200 10012G21KT 5SM BR OVC008
     FM240400 07007KT 6SM -SHRA VCTS OVC008CB
     FM240800 09008KT P6SM OVC015
     FM241000 17008KT P6SM OVC015=

USA.gov is the U.S. government's official web portal to all federal, state and local government web resources and services.